sensor_id;sensor_type;location;lat;lon;timestamp;pressure;altitude;pressure_sealevel;temperature
69545;BMP180;56766;52.260;20.746;2023-04-01T00:00:35;98507.80;;;9.20
69545;BMP180;56766;52.260;20.746;2023-04-01T00:03:14;98506.80;;;9.20
69545;BMP180;56766;52.260;20.746;2023-04-01T00:05:40;98501.40;;;9.16
69545;BMP180;56766;52.260;20.746;2023-04-01T00:08:07;98497.40;;;9.16
69545;BMP180;56766;52.260;20.746;2023-04-01T00:10:34;98495.60;;;9.10
69545;BMP180;56766;52.260;20.746;2023-04-01T00:13:00;98490.20;;;9.10
69545;BMP180;56766;52.260;20.746;2023-04-01T00:15:27;98485.20;;;9.12
69545;BMP180;56766;52.260;20.746;2023-04-01T00:17:54;98484.60;;;9.10
69545;BMP180;56766;52.260;20.746;2023-04-01T00:20:21;98483.00;;;9.10
69545;BMP180;56766;52.260;20.746;2023-04-01T00:22:48;98479.40;;;9.10
69545;BMP180;56766;52.260;20.746;2023-04-01T00:25:14;98476.00;;;9.10
69545;BMP180;56766;52.260;20.746;2023-04-01T00:27:41;98478.60;;;9.10
69545;BMP180;56766;52.260;20.746;2023-04-01T00:30:09;98480.60;;;9.10
69545;BMP180;56766;52.260;20.746;2023-04-01T00:32:36;98479.20;;;9.10
69545;BMP180;56766;52.260;20.746;2023-04-01T00:35:04;98479.20;;;9.10
69545;BMP180;56766;52.260;20.746;2023-04-01T00:37:35;98476.60;;;9.10
69545;BMP180;56766;52.260;20.746;2023-04-01T00:40:25;98472.40;;;9.10
69545;BMP180;56766;52.260;20.746;2023-04-01T00:42:52;98475.40;;;9.10
69545;BMP180;56766;52.260;20.746;2023-04-01T00:45:48;98475.20;;;9.10
69545;BMP180;56766;52.260;20.746;2023-04-01T00:48:20;98464.40;;;9.10
69545;BMP180;56766;52.260;20.746;2023-04-01T00:51:14;98468.40;;;9.10
69545;BMP180;56766;52.260;20.746;2023-04-01T00:53:48;98464.00;;;9.10
69545;BMP180;56766;52.260;20.746;2023-04-01T00:56:23;98456.60;;;9.10
69545;BMP180;56766;52.260;20.746;2023-04-01T00:59:00;98458.20;;;9.10
69545;BMP180;56766;52.260;20.746;2023-04-01T01:01:30;98451.80;;;9.10
69545;BMP180;56766;52.260;20.746;2023-04-01T01:03:58;98450.00;;;9.10
69545;BMP180;56766;52.260;20.746;2023-04-01T01:07:12;98455.00;;;9.10
69545;BMP180;56766;52.260;20.746;2023-04-01T01:13:42;98449.80;;;9.10
69545;BMP180;56766;52.260;20.746;2023-04-01T01:15:52;98461.80;;;9.00
69545;BMP180;56766;52.260;20.746;2023-04-01T01:18:49;98460.60;;;9.00
69545;BMP180;56766;52.260;20.746;2023-04-01T01:21:40;98457.80;;;9.00
69545;BMP180;56766;52.260;20.746;2023-04-01T01:24:30;98454.40;;;9.00
69545;BMP180;56766;52.260;20.746;2023-04-01T01:27:18;98464.60;;;9.10
69545;BMP180;56766;52.260;20.746;2023-04-01T01:30:05;98460.20;;;9.10
69545;BMP180;56766;52.260;20.746;2023-04-01T01:33:06;98465.40;;;9.10
69545;BMP180;56766;52.260;20.746;2023-04-01T01:35:52;98464.60;;;9.10
69545;BMP180;56766;52.260;20.746;2023-04-01T01:38:31;98469.20;;;9.10
69545;BMP180;56766;52.260;20.746;2023-04-01T01:41:04;98469.60;;;9.12
69545;BMP180;56766;52.260;20.746;2023-04-01T01:43:39;98466.80;;;9.20
69545;BMP180;56766;52.260;20.746;2023-04-01T01:46:18;98471.00;;;9.20
69545;BMP180;56766;52.260;20.746;2023-04-01T01:48:49;98465.00;;;9.20
69545;BMP180;56766;52.260;20.746;2023-04-01T01:51:21;98468.00;;;9.20
69545;BMP180;56766;52.260;20.746;2023-04-01T01:53:48;98464.60;;;9.20
69545;BMP180;56766;52.260;20.746;2023-04-01T01:56:20;98462.40;;;9.20
69545;BMP180;56766;52.260;20.746;2023-04-01T01:59:01;98452.20;;;9.20
69545;BMP180;56766;52.260;20.746;2023-04-01T02:01:35;98452.60;;;9.20
69545;BMP180;56766;52.260;20.746;2023-04-01T02:04:08;98449.20;;;9.20
69545;BMP180;56766;52.260;20.746;2023-04-01T02:06:43;98444.40;;;9.20
69545;BMP180;56766;52.260;20.746;2023-04-01T02:09:13;98440.80;;;9.20
69545;BMP180;56766;52.260;20.746;2023-04-01T02:11:50;98443.00;;;9.20
69545;BMP180;56766;52.260;20.746;2023-04-01T02:14:25;98432.60;;;9.20
69545;BMP180;56766;52.260;20.746;2023-04-01T02:17:08;98433.20;;;9.18
69545;BMP180;56766;52.260;20.746;2023-04-01T02:19:57;98440.00;;;9.12
69545;BMP180;56766;52.260;20.746;2023-04-01T02:22:31;98441.60;;;9.16
69545;BMP180;56766;52.260;20.746;2023-04-01T02:25:12;98442.80;;;9.10
69545;BMP180;56766;52.260;20.746;2023-04-01T02:27:44;98436.20;;;9.10
69545;BMP180;56766;52.260;20.746;2023-04-01T02:30:16;98433.40;;;9.10
69545;BMP180;56766;52.260;20.746;2023-04-01T02:32:46;98437.00;;;9.00
69545;BMP180;56766;52.260;20.746;2023-04-01T02:35:17;98433.60;;;9.00
69545;BMP180;56766;52.260;20.746;2023-04-01T02:37:46;98431.20;;;8.90
69545;BMP180;56766;52.260;20.746;2023-04-01T02:40:17;98430.00;;;8.90
69545;BMP180;56766;52.260;20.746;2023-04-01T02:42:44;98428.60;;;8.90
69545;BMP180;56766;52.260;20.746;2023-04-01T02:45:13;98426.00;;;8.90
69545;BMP180;56766;52.260;20.746;2023-04-01T02:47:41;98426.80;;;8.90
69545;BMP180;56766;52.260;20.746;2023-04-01T02:50:09;98431.60;;;8.90
69545;BMP180;56766;52.260;20.746;2023-04-01T02:52:36;98434.20;;;8.92
69545;BMP180;56766;52.260;20.746;2023-04-01T02:55:06;98437.80;;;8.96
69545;BMP180;56766;52.260;20.746;2023-04-01T02:57:33;98439.20;;;9.00
69545;BMP180;56766;52.260;20.746;2023-04-01T03:00:00;98437.20;;;9.00
69545;BMP180;56766;52.260;20.746;2023-04-01T03:02:26;98434.80;;;9.00
69545;BMP180;56766;52.260;20.746;2023-04-01T03:04:53;98437.00;;;9.00
69545;BMP180;56766;52.260;20.746;2023-04-01T03:07:20;98441.60;;;9.00
69545;BMP180;56766;52.260;20.746;2023-04-01T03:09:47;98447.20;;;9.00
69545;BMP180;56766;52.260;20.746;2023-04-01T03:12:14;98443.60;;;9.00
69545;BMP180;56766;52.260;20.746;2023-04-01T03:14:41;98445.60;;;9.00
69545;BMP180;56766;52.260;20.746;2023-04-01T03:17:07;98445.00;;;8.98
69545;BMP180;56766;52.260;20.746;2023-04-01T03:19:34;98446.40;;;8.90
69545;BMP180;56766;52.260;20.746;2023-04-01T03:22:01;98446.40;;;8.90
69545;BMP180;56766;52.260;20.746;2023-04-01T03:24:27;98448.80;;;8.90
69545;BMP180;56766;52.260;20.746;2023-04-01T03:26:54;98450.60;;;8.90
69545;BMP180;56766;52.260;20.746;2023-04-01T03:29:21;98456.40;;;8.90
69545;BMP180;56766;52.260;20.746;2023-04-01T03:31:47;98456.20;;;8.90
69545;BMP180;56766;52.260;20.746;2023-04-01T03:34:14;98458.40;;;8.90
69545;BMP180;56766;52.260;20.746;2023-04-01T03:36:41;98454.20;;;8.84
69545;BMP180;56766;52.260;20.746;2023-04-01T03:39:07;98456.00;;;8.80
69545;BMP180;56766;52.260;20.746;2023-04-01T03:41:37;98453.60;;;8.80
69545;BMP180;56766;52.260;20.746;2023-04-01T03:44:05;98460.00;;;8.80
69545;BMP180;56766;52.260;20.746;2023-04-01T03:46:33;98462.00;;;8.80
69545;BMP180;56766;52.260;20.746;2023-04-01T03:49:02;98462.00;;;8.80
69545;BMP180;56766;52.260;20.746;2023-04-01T03:51:28;98467.20;;;8.80
69545;BMP180;56766;52.260;20.746;2023-04-01T03:53:55;98472.80;;;8.80
69545;BMP180;56766;52.260;20.746;2023-04-01T03:56:22;98467.40;;;8.70
69545;BMP180;56766;52.260;20.746;2023-04-01T03:58:49;98469.00;;;8.70
69545;BMP180;56766;52.260;20.746;2023-04-01T04:01:20;98472.00;;;8.70
69545;BMP180;56766;52.260;20.746;2023-04-01T04:03:50;98470.40;;;8.70
69545;BMP180;56766;52.260;20.746;2023-04-01T04:06:19;98470.80;;;8.70
69545;BMP180;56766;52.260;20.746;2023-04-01T04:08:46;98479.40;;;8.70
69545;BMP180;56766;52.260;20.746;2023-04-01T04:11:14;98480.60;;;8.70
69545;BMP180;56766;52.260;20.746;2023-04-01T04:13:41;98483.80;;;8.70
69545;BMP180;56766;52.260;20.746;2023-04-01T04:16:09;98492.40;;;8.70
69545;BMP180;56766;52.260;20.746;2023-04-01T04:18:37;98495.60;;;8.70
69545;BMP180;56766;52.260;20.746;2023-04-01T04:21:04;98495.00;;;8.70
69545;BMP180;56766;52.260;20.746;2023-04-01T04:23:32;98491.00;;;8.70
69545;BMP180;56766;52.260;20.746;2023-04-01T04:26:08;98494.00;;;8.70
69545;BMP180;56766;52.260;20.746;2023-04-01T04:28:36;98493.00;;;8.70
69545;BMP180;56766;52.260;20.746;2023-04-01T04:31:03;98497.60;;;8.70
69545;BMP180;56766;52.260;20.746;2023-04-01T04:33:32;98498.20;;;8.64
69545;BMP180;56766;52.260;20.746;2023-04-01T04:36:00;98503.20;;;8.70
69545;BMP180;56766;52.260;20.746;2023-04-01T04:38:27;98502.40;;;8.62
69545;BMP180;56766;52.260;20.746;2023-04-01T04:40:55;98501.60;;;8.68
69545;BMP180;56766;52.260;20.746;2023-04-01T04:43:23;98505.80;;;8.66
69545;BMP180;56766;52.260;20.746;2023-04-01T04:45:50;98506.00;;;8.68
69545;BMP180;56766;52.260;20.746;2023-04-01T04:48:17;98503.00;;;8.68
69545;BMP180;56766;52.260;20.746;2023-04-01T04:50:49;98507.80;;;8.70
69545;BMP180;56766;52.260;20.746;2023-04-01T04:53:19;98509.40;;;8.70
69545;BMP180;56766;52.260;20.746;2023-04-01T04:55:49;98510.80;;;8.70
69545;BMP180;56766;52.260;20.746;2023-04-01T04:58:17;98510.20;;;8.70
69545;BMP180;56766;52.260;20.746;2023-04-01T05:00:45;98511.60;;;8.70
69545;BMP180;56766;52.260;20.746;2023-04-01T05:03:13;98516.00;;;8.70
69545;BMP180;56766;52.260;20.746;2023-04-01T05:05:48;98509.80;;;8.72
69545;BMP180;56766;52.260;20.746;2023-04-01T05:08:15;98512.80;;;8.72
69545;BMP180;56766;52.260;20.746;2023-04-01T05:10:41;98514.20;;;8.78
69545;BMP180;56766;52.260;20.746;2023-04-01T05:13:08;98510.80;;;8.72
69545;BMP180;56766;52.260;20.746;2023-04-01T05:15:35;98517.60;;;8.78
69545;BMP180;56766;52.260;20.746;2023-04-01T05:18:02;98514.20;;;8.76
69545;BMP180;56766;52.260;20.746;2023-04-01T05:20:29;98514.40;;;8.80
69545;BMP180;56766;52.260;20.746;2023-04-01T05:22:57;98519.40;;;8.80
69545;BMP180;56766;52.260;20.746;2023-04-01T05:25:25;98517.60;;;8.90
69545;BMP180;56766;52.260;20.746;2023-04-01T05:27:52;98519.80;;;9.00
69545;BMP180;56766;52.260;20.746;2023-04-01T05:30:20;98515.60;;;9.20
69545;BMP180;56766;52.260;20.746;2023-04-01T05:32:47;98520.40;;;9.34
69545;BMP180;56766;52.260;20.746;2023-04-01T05:35:15;98518.40;;;9.50
69545;BMP180;56766;52.260;20.746;2023-04-01T05:37:41;98524.60;;;9.60
69545;BMP180;56766;52.260;20.746;2023-04-01T05:40:09;98518.60;;;9.70
69545;BMP180;56766;52.260;20.746;2023-04-01T05:42:37;98515.60;;;9.72
69545;BMP180;56766;52.260;20.746;2023-04-01T05:45:05;98516.60;;;9.80
69545;BMP180;56766;52.260;20.746;2023-04-01T05:47:33;98514.00;;;9.90
69545;BMP180;56766;52.260;20.746;2023-04-01T05:50:00;98511.60;;;10.00
69545;BMP180;56766;52.260;20.746;2023-04-01T05:52:27;98506.80;;;10.00
69545;BMP180;56766;52.260;20.746;2023-04-01T05:54:55;98514.20;;;10.08
69545;BMP180;56766;52.260;20.746;2023-04-01T05:57:21;98522.60;;;10.10
69545;BMP180;56766;52.260;20.746;2023-04-01T05:59:48;98515.40;;;10.20
69545;BMP180;56766;52.260;20.746;2023-04-01T06:02:17;98518.80;;;10.30
69545;BMP180;56766;52.260;20.746;2023-04-01T06:04:45;98521.40;;;10.30
69545;BMP180;56766;52.260;20.746;2023-04-01T06:07:17;98521.80;;;10.40
69545;BMP180;56766;52.260;20.746;2023-04-01T06:09:45;98525.60;;;10.50
69545;BMP180;56766;52.260;20.746;2023-04-01T06:15:33;98530.00;;;10.76
69545;BMP180;56766;52.260;20.746;2023-04-01T06:18:39;98528.40;;;10.80
69545;BMP180;56766;52.260;20.746;2023-04-01T06:28:02;98535.60;;;10.80
69545;BMP180;56766;52.260;20.746;2023-04-01T06:31:01;98537.20;;;10.90
69545;BMP180;56766;52.260;20.746;2023-04-01T06:36:39;98536.00;;;10.96
69545;BMP180;56766;52.260;20.746;2023-04-01T06:39:58;98534.00;;;11.00
69545;BMP180;56766;52.260;20.746;2023-04-01T06:49:28;98533.40;;;11.34
69545;BMP180;56766;52.260;20.746;2023-04-01T06:52:38;98536.20;;;11.50
69545;BMP180;56766;52.260;20.746;2023-04-01T06:58:00;98539.80;;;11.80
69545;BMP180;56766;52.260;20.746;2023-04-01T07:00:39;98545.00;;;11.88
69545;BMP180;56766;52.260;20.746;2023-04-01T07:03:40;98542.40;;;11.82
69545;BMP180;56766;52.260;20.746;2023-04-01T07:06:30;98548.00;;;11.70
69545;BMP180;56766;52.260;20.746;2023-04-01T07:09:08;98548.00;;;11.60
69545;BMP180;56766;52.260;20.746;2023-04-01T07:11:39;98545.40;;;11.50
69545;BMP180;56766;52.260;20.746;2023-04-01T07:14:34;98545.40;;;11.50
69545;BMP180;56766;52.260;20.746;2023-04-01T07:17:15;98546.80;;;11.60
69545;BMP180;56766;52.260;20.746;2023-04-01T07:19:56;98549.40;;;11.62
69545;BMP180;56766;52.260;20.746;2023-04-01T07:22:52;98544.60;;;11.80
69545;BMP180;56766;52.260;20.746;2023-04-01T07:25:26;98543.40;;;12.00
69545;BMP180;56766;52.260;20.746;2023-04-01T07:28:20;98546.40;;;12.20
69545;BMP180;56766;52.260;20.746;2023-04-01T07:34:28;98547.20;;;12.60
69545;BMP180;56766;52.260;20.746;2023-04-01T07:37:14;98544.00;;;12.62
69545;BMP180;56766;52.260;20.746;2023-04-01T07:51:07;98548.80;;;12.30
69545;BMP180;56766;52.260;20.746;2023-04-01T07:56:57;98548.00;;;12.64
69545;BMP180;56766;52.260;20.746;2023-04-01T07:59:58;98556.40;;;12.82
69545;BMP180;56766;52.260;20.746;2023-04-01T08:03:11;98551.20;;;12.90
69545;BMP180;56766;52.260;20.746;2023-04-01T08:09:05;98550.80;;;13.12
69545;BMP180;56766;52.260;20.746;2023-04-01T08:14:30;98558.20;;;13.10
69545;BMP180;56766;52.260;20.746;2023-04-01T08:17:16;98561.80;;;13.20
69545;BMP180;56766;52.260;20.746;2023-04-01T08:20:23;98559.40;;;13.20
69545;BMP180;56766;52.260;20.746;2023-04-01T08:23:19;98560.40;;;13.10
69545;BMP180;56766;52.260;20.746;2023-04-01T08:26:05;98558.20;;;13.10
69545;BMP180;56766;52.260;20.746;2023-04-01T08:28:50;98565.80;;;13.18
69545;BMP180;56766;52.260;20.746;2023-04-01T08:31:38;98570.40;;;13.30
69545;BMP180;56766;52.260;20.746;2023-04-01T08:34:21;98566.40;;;13.50
69545;BMP180;56766;52.260;20.746;2023-04-01T08:37:03;98567.20;;;13.50
69545;BMP180;56766;52.260;20.746;2023-04-01T08:39:55;98571.40;;;13.50
69545;BMP180;56766;52.260;20.746;2023-04-01T08:51:42;98577.60;;;13.40
69545;BMP180;56766;52.260;20.746;2023-04-01T08:54:55;98579.20;;;13.60
69545;BMP180;56766;52.260;20.746;2023-04-01T09:10:55;98579.40;;;13.70
69545;BMP180;56766;52.260;20.746;2023-04-01T09:22:21;98590.60;;;13.60
69545;BMP180;56766;52.260;20.746;2023-04-01T09:25:38;98584.80;;;13.50
69545;BMP180;56766;52.260;20.746;2023-04-01T09:28:28;98593.60;;;13.40
69545;BMP180;56766;52.260;20.746;2023-04-01T09:31:18;98590.80;;;13.40
69545;BMP180;56766;52.260;20.746;2023-04-01T09:34:46;98589.00;;;13.40
69545;BMP180;56766;52.260;20.746;2023-04-01T09:37:34;98594.00;;;13.40
69545;BMP180;56766;52.260;20.746;2023-04-01T09:40:37;98592.80;;;13.50
69545;BMP180;56766;52.260;20.746;2023-04-01T09:43:28;98597.20;;;13.70
69545;BMP180;56766;52.260;20.746;2023-04-01T09:46:18;98598.80;;;13.96
69545;BMP180;56766;52.260;20.746;2023-04-01T09:52:18;98591.60;;;14.40
69545;BMP180;56766;52.260;20.746;2023-04-01T10:04:41;98591.40;;;15.64
69545;BMP180;56766;52.260;20.746;2023-04-01T10:14:03;98593.80;;;16.70
69545;BMP180;56766;52.260;20.746;2023-04-01T10:20:38;98591.60;;;17.20
69545;BMP180;56766;52.260;20.746;2023-04-01T10:27:10;98601.40;;;16.60
69545;BMP180;56766;52.260;20.746;2023-04-01T10:30:13;98598.60;;;16.50
69545;BMP180;56766;52.260;20.746;2023-04-01T10:54:47;98610.20;;;14.00
69545;BMP180;56766;52.260;20.746;2023-04-01T11:08:04;98615.40;;;13.40
69545;BMP180;56766;52.260;20.746;2023-04-01T11:26:07;98634.80;;;14.50
69545;BMP180;56766;52.260;20.746;2023-04-01T11:32:45;98628.60;;;14.70
69545;BMP180;56766;52.260;20.746;2023-04-01T11:41:38;98632.40;;;14.90
69545;BMP180;56766;52.260;20.746;2023-04-01T11:44:21;98628.60;;;14.90
69545;BMP180;56766;52.260;20.746;2023-04-01T11:47:37;98627.80;;;15.00
69545;BMP180;56766;52.260;20.746;2023-04-01T11:50:46;98631.00;;;15.20
69545;BMP180;56766;52.260;20.746;2023-04-01T11:53:33;98631.60;;;15.48
69545;BMP180;56766;52.260;20.746;2023-04-01T11:59:52;98628.20;;;15.90
69545;BMP180;56766;52.260;20.746;2023-04-01T12:05:45;98632.40;;;16.30
69545;BMP180;56766;52.260;20.746;2023-04-01T12:08:47;98630.80;;;16.40
69545;BMP180;56766;52.260;20.746;2023-04-01T12:11:43;98630.40;;;16.60
69545;BMP180;56766;52.260;20.746;2023-04-01T12:14:27;98626.80;;;16.70
69545;BMP180;56766;52.260;20.746;2023-04-01T12:17:21;98626.20;;;16.60
69545;BMP180;56766;52.260;20.746;2023-04-01T12:20:12;98629.40;;;16.54
69545;BMP180;56766;52.260;20.746;2023-04-01T12:40:45;98631.60;;;15.10
69545;BMP180;56766;52.260;20.746;2023-04-01T12:43:53;98635.80;;;14.52
69545;BMP180;56766;52.260;20.746;2023-04-01T12:49:49;98649.00;;;13.30
69545;BMP180;56766;52.260;20.746;2023-04-01T12:55:41;98652.40;;;12.68
69545;BMP180;56766;52.260;20.746;2023-04-01T12:59:02;98656.00;;;12.50
69545;BMP180;56766;52.260;20.746;2023-04-01T13:02:12;98651.80;;;12.70
69545;BMP180;56766;52.260;20.746;2023-04-01T13:05:22;98655.60;;;13.00
69545;BMP180;56766;52.260;20.746;2023-04-01T13:08:05;98652.40;;;13.30
69545;BMP180;56766;52.260;20.746;2023-04-01T13:11:40;98658.20;;;13.52
69545;BMP180;56766;52.260;20.746;2023-04-01T13:17:15;98660.60;;;13.70
69545;BMP180;56766;52.260;20.746;2023-04-01T13:20:19;98664.20;;;13.60
69545;BMP180;56766;52.260;20.746;2023-04-01T13:23:33;98668.80;;;13.22
69545;BMP180;56766;52.260;20.746;2023-04-01T13:30:17;98687.20;;;12.00
69545;BMP180;56766;52.260;20.746;2023-04-01T13:32:50;98690.40;;;11.42
69545;BMP180;56766;52.260;20.746;2023-04-01T13:35:36;98697.80;;;11.10
69545;BMP180;56766;52.260;20.746;2023-04-01T13:38:39;98699.80;;;10.90
69545;BMP180;56766;52.260;20.746;2023-04-01T13:44:31;98715.00;;;10.84
69545;BMP180;56766;52.260;20.746;2023-04-01T13:51:05;98725.80;;;11.10
69545;BMP180;56766;52.260;20.746;2023-04-01T14:11:21;98737.40;;;11.40
69545;BMP180;56766;52.260;20.746;2023-04-01T14:23:29;98757.40;;;10.70
69545;BMP180;56766;52.260;20.746;2023-04-01T14:40:54;98768.80;;;10.40
69545;BMP180;56766;52.260;20.746;2023-04-01T14:46:37;98770.60;;;10.42
69545;BMP180;56766;52.260;20.746;2023-04-01T14:49:31;98781.00;;;10.40
69545;BMP180;56766;52.260;20.746;2023-04-01T14:52:27;98784.00;;;10.40
69545;BMP180;56766;52.260;20.746;2023-04-01T14:54:57;98790.20;;;10.30
69545;BMP180;56766;52.260;20.746;2023-04-01T14:57:30;98795.20;;;10.30
69545;BMP180;56766;52.260;20.746;2023-04-01T15:00:12;98799.40;;;10.20
69545;BMP180;56766;52.260;20.746;2023-04-01T15:05:47;98798.40;;;10.10
69545;BMP180;56766;52.260;20.746;2023-04-01T15:08:38;98812.00;;;10.00
69545;BMP180;56766;52.260;20.746;2023-04-01T15:11:28;98810.20;;;10.00
69545;BMP180;56766;52.260;20.746;2023-04-01T15:23:05;98826.40;;;10.08
69545;BMP180;56766;52.260;20.746;2023-04-01T15:26:11;98828.40;;;10.20
69545;BMP180;56766;52.260;20.746;2023-04-01T15:31:49;98836.00;;;10.20
69545;BMP180;56766;52.260;20.746;2023-04-01T15:37:33;98839.60;;;10.00
69545;BMP180;56766;52.260;20.746;2023-04-01T15:40:30;98844.00;;;10.00
69545;BMP180;56766;52.260;20.746;2023-04-01T15:49:33;98852.40;;;9.80
69545;BMP180;56766;52.260;20.746;2023-04-01T15:52:59;98855.60;;;9.80
69545;BMP180;56766;52.260;20.746;2023-04-01T16:01:28;98869.00;;;9.70
69545;BMP180;56766;52.260;20.746;2023-04-01T16:07:48;98877.40;;;9.70
69545;BMP180;56766;52.260;20.746;2023-04-01T16:10:41;98887.80;;;9.70
69545;BMP180;56766;52.260;20.746;2023-04-01T16:22:34;98912.00;;;9.50
69545;BMP180;56766;52.260;20.746;2023-04-01T16:25:31;98912.60;;;9.50
69545;BMP180;56766;52.260;20.746;2023-04-01T16:28:31;98916.60;;;9.42
69545;BMP180;56766;52.260;20.746;2023-04-01T16:31:41;98922.60;;;9.40
69545;BMP180;56766;52.260;20.746;2023-04-01T16:34:37;98929.80;;;9.40
69545;BMP180;56766;52.260;20.746;2023-04-01T16:37:21;98927.60;;;9.40
69545;BMP180;56766;52.260;20.746;2023-04-01T16:40:37;98933.40;;;9.30
69545;BMP180;56766;52.260;20.746;2023-04-01T16:43:21;98940.40;;;9.24
69545;BMP180;56766;52.260;20.746;2023-04-01T16:46:28;98943.80;;;9.20
69545;BMP180;56766;52.260;20.746;2023-04-01T16:49:28;98949.80;;;9.10
69545;BMP180;56766;52.260;20.746;2023-04-01T16:55:18;98964.00;;;9.10
69545;BMP180;56766;52.260;20.746;2023-04-01T16:57:57;98969.80;;;9.10
69545;BMP180;56766;52.260;20.746;2023-04-01T17:00:37;98976.80;;;9.02
69545;BMP180;56766;52.260;20.746;2023-04-01T17:06:19;98984.00;;;9.00
69545;BMP180;56766;52.260;20.746;2023-04-01T17:12:38;98989.40;;;8.90
69545;BMP180;56766;52.260;20.746;2023-04-01T17:18:41;99000.60;;;8.80
69545;BMP180;56766;52.260;20.746;2023-04-01T17:21:54;99002.80;;;8.80
69545;BMP180;56766;52.260;20.746;2023-04-01T17:33:57;99019.40;;;8.60
69545;BMP180;56766;52.260;20.746;2023-04-01T17:39:44;99029.20;;;8.50
69545;BMP180;56766;52.260;20.746;2023-04-01T17:45:55;99041.60;;;8.44
69545;BMP180;56766;52.260;20.746;2023-04-01T17:48:47;99053.40;;;8.40
69545;BMP180;56766;52.260;20.746;2023-04-01T18:03:00;99080.00;;;8.20
69545;BMP180;56766;52.260;20.746;2023-04-01T18:18:10;99097.40;;;8.04
69545;BMP180;56766;52.260;20.746;2023-04-01T18:21:02;99106.20;;;8.00
69545;BMP180;56766;52.260;20.746;2023-04-01T18:24:03;99112.40;;;8.00
69545;BMP180;56766;52.260;20.746;2023-04-01T18:26:37;99121.60;;;8.00
69545;BMP180;56766;52.260;20.746;2023-04-01T18:29:51;99119.20;;;8.00
69545;BMP180;56766;52.260;20.746;2023-04-01T18:32:35;99123.80;;;7.92
69545;BMP180;56766;52.260;20.746;2023-04-01T18:38:19;99134.00;;;7.90
69545;BMP180;56766;52.260;20.746;2023-04-01T18:44:46;99148.80;;;7.90
69545;BMP180;56766;52.260;20.746;2023-04-01T18:47:41;99148.60;;;7.90
69545;BMP180;56766;52.260;20.746;2023-04-01T18:50:36;99147.40;;;7.90
69545;BMP180;56766;52.260;20.746;2023-04-01T18:53:30;99157.80;;;7.88
69545;BMP180;56766;52.260;20.746;2023-04-01T18:56:06;99154.80;;;7.82
69545;BMP180;56766;52.260;20.746;2023-04-01T18:58:59;99154.20;;;7.80
69545;BMP180;56766;52.260;20.746;2023-04-01T19:02:19;99157.00;;;7.80
69545;BMP180;56766;52.260;20.746;2023-04-01T19:05:09;99160.00;;;7.80
69545;BMP180;56766;52.260;20.746;2023-04-01T19:07:54;99166.20;;;7.80
69545;BMP180;56766;52.260;20.746;2023-04-01T19:10:56;99173.20;;;7.80
69545;BMP180;56766;52.260;20.746;2023-04-01T19:16:45;99182.80;;;7.80
69545;BMP180;56766;52.260;20.746;2023-04-01T19:25:26;99195.40;;;7.70
69545;BMP180;56766;52.260;20.746;2023-04-01T19:31:18;99200.40;;;7.70
69545;BMP180;56766;52.260;20.746;2023-04-01T19:36:55;99208.40;;;7.68
69545;BMP180;56766;52.260;20.746;2023-04-01T19:43:17;99205.60;;;7.60
69545;BMP180;56766;52.260;20.746;2023-04-01T19:45:57;99211.80;;;7.60
69545;BMP180;56766;52.260;20.746;2023-04-01T19:51:51;99217.40;;;7.60
69545;BMP180;56766;52.260;20.746;2023-04-01T19:54:36;99226.20;;;7.60
69545;BMP180;56766;52.260;20.746;2023-04-01T19:58:20;99228.40;;;7.60
69545;BMP180;56766;52.260;20.746;2023-04-01T20:00:46;99230.80;;;7.60
69545;BMP180;56766;52.260;20.746;2023-04-01T20:03:30;99231.00;;;7.58
69545;BMP180;56766;52.260;20.746;2023-04-01T20:12:30;99246.40;;;7.50
69545;BMP180;56766;52.260;20.746;2023-04-01T20:17:53;99248.80;;;7.40
69545;BMP180;56766;52.260;20.746;2023-04-01T20:20:28;99250.40;;;7.40
69545;BMP180;56766;52.260;20.746;2023-04-01T20:25:51;99252.60;;;7.32
69545;BMP180;56766;52.260;20.746;2023-04-01T20:34:00;99255.60;;;7.30
69545;BMP180;56766;52.260;20.746;2023-04-01T20:40:12;99266.00;;;7.30
69545;BMP180;56766;52.260;20.746;2023-04-01T20:46:18;99269.60;;;7.26
69545;BMP180;56766;52.260;20.746;2023-04-01T20:51:43;99269.60;;;7.20
69545;BMP180;56766;52.260;20.746;2023-04-01T20:54:59;99277.00;;;7.20
69545;BMP180;56766;52.260;20.746;2023-04-01T20:57:51;99279.80;;;7.12
69545;BMP180;56766;52.260;20.746;2023-04-01T21:03:41;99287.40;;;7.10
69545;BMP180;56766;52.260;20.746;2023-04-01T21:06:27;99292.60;;;7.10
69545;BMP180;56766;52.260;20.746;2023-04-01T21:09:29;99297.00;;;7.10
69545;BMP180;56766;52.260;20.746;2023-04-01T21:12:23;99307.00;;;7.10
69545;BMP180;56766;52.260;20.746;2023-04-01T21:15:26;99312.60;;;7.02
69545;BMP180;56766;52.260;20.746;2023-04-01T21:18:36;99313.00;;;7.00
69545;BMP180;56766;52.260;20.746;2023-04-01T21:24:29;99319.20;;;7.00
69545;BMP180;56766;52.260;20.746;2023-04-01T21:28:20;99315.00;;;7.00
69545;BMP180;56766;52.260;20.746;2023-04-01T21:30:48;99320.40;;;7.00
69545;BMP180;56766;52.260;20.746;2023-04-01T21:36:46;99333.20;;;7.00
69545;BMP180;56766;52.260;20.746;2023-04-01T21:39:26;99331.60;;;7.00
69545;BMP180;56766;52.260;20.746;2023-04-01T21:45:39;99342.20;;;7.00
69545;BMP180;56766;52.260;20.746;2023-04-01T22:00:18;99357.00;;;6.90
69545;BMP180;56766;52.260;20.746;2023-04-01T22:09:18;99358.80;;;6.80
69545;BMP180;56766;52.260;20.746;2023-04-01T22:12:07;99359.40;;;6.80
69545;BMP180;56766;52.260;20.746;2023-04-01T22:15:44;99362.00;;;6.80
69545;BMP180;56766;52.260;20.746;2023-04-01T22:18:08;99361.00;;;6.70
69545;BMP180;56766;52.260;20.746;2023-04-01T22:27:33;99372.00;;;6.70
69545;BMP180;56766;52.260;20.746;2023-04-01T22:30:06;99377.80;;;6.70
69545;BMP180;56766;52.260;20.746;2023-04-01T22:33:17;99381.00;;;6.70
69545;BMP180;56766;52.260;20.746;2023-04-01T22:36:04;99386.00;;;6.70
69545;BMP180;56766;52.260;20.746;2023-04-01T22:39:00;99389.40;;;6.70
69545;BMP180;56766;52.260;20.746;2023-04-01T22:41:49;99390.80;;;6.70
69545;BMP180;56766;52.260;20.746;2023-04-01T22:50:18;99392.00;;;6.60
69545;BMP180;56766;52.260;20.746;2023-04-01T22:53:00;99393.60;;;6.60
69545;BMP180;56766;52.260;20.746;2023-04-01T22:55:38;99397.60;;;6.60
69545;BMP180;56766;52.260;20.746;2023-04-01T22:58:20;99403.00;;;6.60